Time;durP1;ratioP1;P1;durP2;ratioP2;P2;SDS_P1;SDS_P2;PMS_P1;PMS_P2;Temp;Humidity;BMP_temperature;BMP_pressure;BME280_temperature;BME280_humidity;BME280_pressure;Samples;Min_cycle;Max_cycle;Signal;HPM_P1;HPM_P2
2022/05/29 00:01:20;;;;;;;3.10;2.03;;;;;;;4.82;100.00;96202.56;5072982;28;20463;-75
2022/05/29 00:03:49;;;;;;;3.83;1.50;;;;;;;5.17;100.00;96214.16;5052599;28;20480;-75
2022/05/29 00:06:16;;;;;;;1.70;1.60;;;;;;;4.88;100.00;96196.16;5066352;28;20464;-75
2022/05/29 00:08:45;;;;;;;2.67;1.83;;;;;;;5.00;100.00;96201.69;5072731;28;20542;-75
2022/05/29 00:11:14;;;;;;;7.63;2.37;;;;;;;5.05;100.00;96185.84;5073753;28;20562;-75
2022/05/29 00:13:44;;;;;;;3.47;2.47;;;;;;;5.26;100.00;96194.06;5082822;28;20851;-75
2022/05/29 00:16:11;;;;;;;2.80;1.70;;;;;;;4.85;100.00;96176.56;5079353;28;20971;-75
2022/05/29 00:18:38;;;;;;;1.77;1.67;;;;;;;4.94;100.00;96171.41;5072368;28;20961;-74
2022/05/29 00:21:06;;;;;;;4.00;2.70;;;;;;;5.02;100.00;96173.34;5072631;28;20509;-75
2022/05/29 00:23:40;;;;;;;4.53;3.77;;;;;;;5.47;100.00;96199.63;5074302;28;20506;-75
2022/05/29 00:26:07;;;;;;;6.13;4.57;;;;;;;5.03;100.00;96170.41;5073236;28;20482;-75
2022/05/29 00:28:34;;;;;;;5.33;3.43;;;;;;;4.78;100.00;96151.81;5073660;28;20760;-75
2022/05/29 00:31:01;;;;;;;6.07;5.47;;;;;;;4.73;100.00;96163.97;5072451;28;20451;-75
2022/05/29 00:33:28;;;;;;;4.13;3.50;;;;;;;4.87;100.00;96160.56;5072596;28;20882;-75
2022/05/29 00:35:54;;;;;;;5.83;5.03;;;;;;;4.71;100.00;96147.00;5055612;28;20469;-75
2022/05/29 00:38:21;;;;;;;9.53;7.30;;;;;;;4.90;100.00;96186.94;5066365;28;20493;-75
2022/05/29 00:40:52;;;;;;;8.00;6.60;;;;;;;5.15;100.00;96196.13;5074479;28;20431;-75
2022/05/29 00:43:19;;;;;;;3.83;3.43;;;;;;;4.60;100.00;96156.88;5083189;28;20490;-75
2022/05/29 00:46:06;;;;;;;5.10;3.87;;;;;;;4.87;100.00;96191.97;5074203;28;20946;-75
2022/05/29 00:48:33;;;;;;;3.60;3.10;;;;;;;4.86;100.00;96156.38;5071852;28;20428;-75
2022/05/29 00:51:03;;;;;;;3.53;3.23;;;;;;;5.12;100.00;96185.44;5071851;28;20451;-75
2022/05/29 00:53:30;;;;;;;6.80;2.27;;;;;;;5.26;100.00;96181.72;5074221;28;20542;-75
2022/05/29 00:56:05;;;;;;;2.60;1.83;;;;;;;5.02;100.00;96183.81;5082511;28;20470;-75
2022/05/29 00:58:32;;;;;;;1.93;1.80;;;;;;;5.01;100.00;96187.50;5071543;28;20534;-75
2022/05/29 01:01:02;;;;;;;6.80;6.10;;;;;;;4.96;100.00;96145.69;5071345;28;20527;-75
2022/05/29 01:03:28;;;;;;;6.03;5.43;;;;;;;4.70;100.00;96093.84;5075583;28;20458;-75
2022/05/29 01:05:55;;;;;;;6.43;4.80;;;;;;;4.86;100.00;96106.63;5063459;28;20432;-75
2022/05/29 01:08:27;;;;;;;5.17;4.57;;;;;;;5.11;100.00;96168.97;5071169;28;20436;-75
2022/05/29 01:11:05;;;;;;;5.20;4.30;;;;;;;5.34;100.00;96169.75;5071435;28;20424;-75
2022/05/29 01:13:35;;;;;;;6.13;4.80;;;;;;;5.23;100.00;96169.22;5059644;28;20541;-75
2022/05/29 01:16:02;;;;;;;5.83;3.70;;;;;;;5.34;100.00;96169.75;5071138;28;20442;-75
2022/05/29 01:18:45;;;;;;;3.60;2.80;;;;;;;5.38;100.00;96154.22;5070916;28;20490;-75
2022/05/29 01:21:41;;;;;;;4.80;3.67;;;;;;;5.21;100.00;96170.59;5087684;28;20507;-75
2022/05/29 01:24:45;;;;;;;8.40;4.37;;;;;;;4.53;100.00;96132.94;5072120;28;20450;-75
2022/05/29 01:27:30;;;;;;;6.20;4.03;;;;;;;5.00;100.00;96165.00;5091069;28;20447;-75
2022/05/29 01:30:03;;;;;;;4.40;3.93;;;;;;;5.13;100.00;96158.97;5061866;28;20472;-75
2022/05/29 01:33:07;;;;;;;3.33;2.90;;;;;;;4.89;100.00;96155.78;5068921;28;20833;-75
2022/05/29 01:35:52;;;;;;;4.40;3.00;;;;;;;4.94;100.00;96160.91;5074175;28;20436;-75
2022/05/29 01:38:30;;;;;;;5.17;3.40;;;;;;;5.00;100.00;96163.16;5093715;28;20477;-75
2022/05/29 01:41:11;;;;;;;5.13;2.20;;;;;;;4.72;100.00;96130.22;5057958;28;20439;-75
2022/05/29 01:43:44;;;;;;;2.50;2.30;;;;;;;4.79;100.00;96148.13;5075107;28;20441;-75
2022/05/29 01:46:37;;;;;;;2.23;1.80;;;;;;;4.71;100.00;96154.84;5057164;28;20446;-75
2022/05/29 01:49:23;;;;;;;2.43;2.07;;;;;;;4.44;100.00;96111.91;5072931;28;20447;-75
2022/05/29 01:51:59;;;;;;;2.80;1.80;;;;;;;4.59;100.00;96147.47;5070743;28;20550;-75
2022/05/29 01:54:35;;;;;;;2.43;2.23;;;;;;;4.57;100.00;96144.38;5086481;28;20535;-75
2022/05/29 01:57:15;;;;;;;3.67;2.13;;;;;;;4.63;100.00;96132.72;5070521;28;20428;-75
2022/05/29 01:59:47;;;;;;;2.43;2.20;;;;;;;4.41;100.00;96115.13;5087446;28;20455;-75
2022/05/29 02:02:20;;;;;;;4.47;2.20;;;;;;;4.21;100.00;96091.16;5084201;28;20980;-75
2022/05/29 02:04:50;;;;;;;2.20;1.93;;;;;;;4.63;100.00;96131.97;5087153;28;20466;-75
2022/05/29 02:10:47;;;;;;;3.33;2.17;;;;;;;4.66;100.00;96121.66;5072013;28;20955;-75
2022/05/29 02:13:27;;;;;;;2.30;2.10;;;;;;;4.54;100.00;96120.63;5009245;28;20577;-75
2022/05/29 02:16:06;;;;;;;2.37;1.80;;;;;;;4.30;100.00;96115.59;4993103;28;20525;-75
2022/05/29 02:18:44;;;;;;;7.53;2.20;;;;;;;3.85;100.00;96105.66;4993253;28;20977;-75
2022/05/29 02:21:18;;;;;;;2.90;2.20;;;;;;;3.68;100.00;96105.44;5009410;28;20425;-75
2022/05/29 02:23:51;;;;;;;2.13;2.03;;;;;;;3.58;100.00;96057.78;4992970;28;20466;-75
2022/05/29 02:26:23;;;;;;;2.37;2.17;;;;;;;3.82;100.00;96098.41;4993097;28;20443;-75
2022/05/29 02:28:54;;;;;;;2.87;2.37;;;;;;;3.90;100.00;96094.34;4993020;28;20449;-75
2022/05/29 02:31:40;;;;;;;3.50;2.30;;;;;;;3.72;100.00;96077.66;4993035;28;20462;-75
2022/05/29 02:34:12;;;;;;;4.83;3.63;;;;;;;3.53;100.00;96092.63;4973298;28;20527;-75
2022/05/29 02:37:03;;;;;;;6.27;2.50;;;;;;;3.90;100.00;96091.75;4992649;28;20434;-75
2022/05/29 02:39:38;;;;;;;4.43;2.20;;;;;;;4.17;100.00;96090.97;4997317;28;21518;-75
2022/05/29 02:42:29;;;;;;;2.80;1.70;;;;;;;4.15;100.00;96083.44;4992597;28;20548;-75
2022/05/29 02:45:17;;;;;;;2.30;2.10;;;;;;;4.21;100.00;96067.63;5055705;28;20519;-75
2022/05/29 02:47:53;;;;;;;5.50;2.17;;;;;;;4.42;100.00;96076.63;5071160;28;20451;-75
2022/05/29 02:50:53;;;;;;;3.10;2.30;;;;;;;4.43;100.00;96081.56;5069767;28;20543;-75
2022/05/29 02:53:20;;;;;;;2.70;2.40;;;;;;;3.91;100.00;96003.59;5069764;28;20462;-75
2022/05/29 02:55:47;;;;;;;2.10;2.00;;;;;;;3.81;100.00;96022.84;5086518;28;20433;-75
2022/05/29 02:58:20;;;;;;;3.70;2.10;;;;;;;3.70;100.00;96017.03;5069781;28;20522;-75
2022/05/29 03:01:12;;;;;;;9.53;3.57;;;;;;;4.04;100.00;96050.69;5049622;28;20495;-75
2022/05/29 03:04:10;;;;;;;2.57;2.33;;;;;;;4.23;100.00;96049.78;5092396;28;20478;-75
2022/05/29 03:06:45;;;;;;;1.77;1.67;;;;;;;4.25;100.00;96053.66;5068901;28;20532;-75
2022/05/29 03:09:24;;;;;;;3.63;1.90;;;;;;;3.92;100.00;96047.75;5066595;28;20555;-75
2022/05/29 03:11:51;;;;;;;3.00;1.67;;;;;;;3.61;100.00;96015.41;5073669;28;20650;-75
2022/05/29 03:14:24;;;;;;;2.73;1.97;;;;;;;4.00;100.00;96041.06;5073608;28;20439;-75
2022/05/29 03:17:24;;;;;;;6.30;2.13;;;;;;;4.19;100.00;96048.81;5077829;28;20438;-75
2022/05/29 03:20:01;;;;;;;1.67;1.57;;;;;;;3.89;100.00;96031.88;5092803;28;20430;-75
2022/05/29 03:22:39;;;;;;;2.03;1.60;;;;;;;3.94;100.00;96044.84;5075982;28;20488;-75
2022/05/29 03:25:13;;;;;;;2.07;1.87;;;;;;;4.05;100.00;96041.75;5086576;28;20432;-75
2022/05/29 03:27:45;;;;;;;1.97;1.50;;;;;;;3.92;100.00;96033.91;5076037;28;20462;-75
2022/05/29 03:30:30;;;;;;;2.30;1.67;;;;;;;4.01;100.00;96043.41;5092549;28;20451;-75
2022/05/29 03:33:00;;;;;;;1.53;1.43;;;;;;;4.01;100.00;96053.09;5060261;28;20685;-75
2022/05/29 03:35:34;;;;;;;2.87;2.30;;;;;;;3.90;100.00;96038.66;5073097;28;20870;-75
2022/05/29 03:38:03;;;;;;;2.40;1.40;;;;;;;4.01;100.00;96056.50;5073175;28;20428;-75
2022/05/29 03:40:32;;;;;;;2.60;1.40;;;;;;;3.82;100.00;96043.50;5072966;28;20436;-75
2022/05/29 03:42:58;;;;;;;1.63;1.50;;;;;;;3.56;100.00;96031.94;5074142;28;20560;-75
2022/05/29 03:45:26;;;;;;;1.57;1.30;;;;;;;3.67;100.00;96040.38;5073034;28;20450;-75
2022/05/29 03:47:52;;;;;;;2.53;1.37;;;;;;;3.77;100.00;96033.13;5052550;28;20467;-75
2022/05/29 03:50:22;;;;;;;3.77;2.00;;;;;;;3.91;100.00;96053.28;5085964;28;20428;-75
2022/05/29 03:52:49;;;;;;;3.17;2.10;;;;;;;3.59;100.00;96018.28;5074262;28;20971;-75
2022/05/29 03:55:20;;;;;;;2.93;2.20;;;;;;;3.80;100.00;96021.31;5072711;28;20863;-75
2022/05/29 03:57:47;;;;;;;3.50;2.00;;;;;;;4.12;100.00;96047.34;5072663;28;20468;-75
2022/05/29 04:00:18;;;;;;;5.63;1.83;;;;;;;4.10;100.00;96041.66;5072678;28;20939;-75
2022/05/29 04:02:46;;;;;;;3.77;2.27;;;;;;;3.72;100.00;96011.53;5072390;28;20452;-75
2022/05/29 04:05:16;;;;;;;1.63;1.50;;;;;;;3.48;100.00;96032.63;5086075;28;20535;-75
2022/05/29 04:13:13;;;;;;;2.77;2.57;;;;;;;4.07;100.00;96039.63;5072392;28;20517;-75
2022/05/29 04:15:45;;;;;;;2.27;2.07;;;;;;;3.81;100.00;96005.34;5085266;28;20804;-75
2022/05/29 04:18:15;;;;;;;2.60;2.20;;;;;;;3.98;100.00;96036.13;5072179;28;20496;-75
2022/05/29 04:20:42;;;;;;;2.90;1.90;;;;;;;4.05;100.00;96030.53;5072451;28;20424;-75
2022/05/29 04:23:09;;;;;;;2.57;2.37;;;;;;;3.67;100.00;96015.00;5060562;28;20515;-75
2022/05/29 04:25:36;;;;;;;2.27;2.07;;;;;;;3.88;100.00;96009.41;5069639;28;21045;-75
2022/05/29 04:28:03;;;;;;;3.57;2.77;;;;;;;4.12;100.00;96017.81;5085981;28;20456;-75
2022/05/29 04:30:30;;;;;;;3.10;2.90;;;;;;;4.00;100.00;96010.44;5089414;28;20444;-74
2022/05/29 04:32:59;;;;;;;2.63;2.43;;;;;;;4.38;100.00;96003.16;5079074;28;20497;-75
2022/05/29 04:35:39;;;;;;;2.37;2.13;;;;;;;4.73;100.00;95985.13;5078112;28;20519;-75
2022/05/29 04:38:06;;;;;;;2.63;2.00;;;;;;;5.13;100.00;96022.69;5052103;28;20528;-75
2022/05/29 04:40:36;;;;;;;2.80;2.50;;;;;;;5.23;100.00;96005.97;5068400;28;20544;-75
2022/05/29 04:43:02;;;;;;;2.70;2.37;;;;;;;5.47;100.00;96019.50;5071825;28;20558;-75
2022/05/29 04:45:30;;;;;;;4.23;1.80;;;;;;;5.44;100.00;95993.88;5072169;28;20439;-75
2022/05/29 04:47:56;;;;;;;3.80;2.40;;;;;;;5.76;100.00;96007.78;5071754;28;21067;-75
2022/05/29 04:50:23;;;;;;;5.20;2.17;;;;;;;5.73;100.00;96010.97;5087418;28;20528;-75
2022/05/29 04:52:53;;;;;;;2.30;2.10;;;;;;;5.94;100.00;96004.16;5071707;28;20449;-75
2022/05/29 04:55:20;;;;;;;2.77;2.57;;;;;;;6.11;100.00;96008.69;5072916;28;20427;-75
2022/05/29 04:57:47;;;;;;;2.40;2.20;;;;;;;5.89;100.00;95972.78;5071529;28;20515;-75
2022/05/29 05:00:14;;;;;;;3.93;2.20;;;;;;;6.28;100.00;95981.69;5071387;28;20471;-75
2022/05/29 05:02:41;;;;;;;3.30;2.60;;;;;;;6.59;100.00;96008.63;5071708;28;20502;-75
2022/05/29 05:05:09;;;;;;;2.47;2.27;;;;;;;6.91;100.00;96010.00;5054793;28;20435;-75
2022/05/29 05:07:36;;;;;;;4.00;1.97;;;;;;;6.97;100.00;95994.88;5051567;28;20469;-74
2022/05/29 05:10:05;;;;;;;3.80;2.23;;;;;;;7.22;100.00;96011.69;5073984;28;20530;-75
2022/05/29 05:12:31;;;;;;;2.20;2.10;;;;;;;7.09;100.00;95984.50;5063101;28;20745;-75
2022/05/29 05:14:58;;;;;;;2.37;2.17;;;;;;;7.45;100.00;96015.66;5076564;28;20454;-75
2022/05/29 05:17:24;;;;;;;7.40;2.43;;;;;;;7.43;100.00;95988.91;5091611;28;20440;-75
2022/05/29 05:19:51;;;;;;;4.20;2.27;;;;;;;7.32;100.00;95985.06;5074694;28;20519;-75
2022/05/29 05:22:17;;;;;;;2.57;1.60;;;;;;;7.81;100.00;96003.94;5073990;28;20468;-76
2022/05/29 05:24:44;;;;;;;2.93;2.60;;;;;;;8.11;100.00;96002.09;5090631;28;20468;-75
2022/05/29 05:27:12;;;;;;;3.60;2.90;;;;;;;7.84;100.00;96001.44;5087007;28;20470;-75
2022/05/29 05:29:42;;;;;;;2.83;2.40;;;;;;;7.91;100.00;95990.44;5056762;28;20447;-75
2022/05/29 05:32:09;;;;;;;2.63;2.40;;;;;;;7.74;100.00;96019.44;5074005;28;20471;-75
2022/05/29 05:34:36;;;;;;;5.23;2.50;;;;;;;7.59;100.00;96018.88;5071605;28;20486;-75
2022/05/29 05:37:03;;;;;;;6.93;2.50;;;;;;;7.45;100.00;95989.34;5050951;28;20954;-75
2022/05/29 05:39:30;;;;;;;2.57;2.37;;;;;;;7.54;100.00;95995.38;5070798;28;21096;-75
2022/05/29 05:41:56;;;;;;;3.20;2.80;;;;;;;7.31;100.00;95996.66;5087471;28;20447;-75
2022/05/29 05:44:23;;;;;;;4.30;2.50;;;;;;;6.91;100.00;95986.34;5070591;28;20996;-75
2022/05/29 05:46:53;;;;;;;10.60;3.10;;;;;;;6.77;100.00;96010.16;5070462;28;20527;-75
2022/05/29 05:49:27;;;;;;;3.23;2.50;;;;;;;6.83;100.00;95997.66;5055077;28;20420;-75
2022/05/29 05:51:57;;;;;;;4.80;3.07;;;;;;;6.71;100.00;95989.63;5086212;28;20483;-75
2022/05/29 05:54:23;;;;;;;3.67;2.63;;;;;;;6.61;100.00;95995.19;5061160;28;20528;-75
2022/05/29 05:56:51;;;;;;;6.00;2.97;;;;;;;6.55;100.00;96004.31;5057215;28;20535;-75
2022/05/29 05:59:18;;;;;;;4.40;2.93;;;;;;;6.64;100.00;95999.81;5080778;28;20438;-74
2022/05/29 06:01:45;;;;;;;4.37;3.50;;;;;;;6.61;100.00;95992.56;5071748;28;21052;-75
2022/05/29 06:04:12;;;;;;;4.80;3.40;;;;;;;6.70;100.00;96017.75;5072099;28;20421;-74
2022/05/29 06:06:39;;;;;;;4.73;2.73;;;;;;;6.79;100.00;95994.84;5053861;28;20504;-74
2022/05/29 06:09:06;;;;;;;3.40;2.20;;;;;;;6.93;100.00;95978.16;5054118;28;20495;-75
2022/05/29 06:11:33;;;;;;;3.20;2.90;;;;;;;7.29;100.00;96020.66;5086011;28;20993;-75
2022/05/29 06:14:00;;;;;;;4.07;2.73;;;;;;;7.71;100.00;96026.88;5081328;28;21262;-75
2022/05/29 06:16:27;;;;;;;4.33;2.77;;;;;;;7.81;100.00;95991.56;5077622;28;20469;-75
2022/05/29 06:18:54;;;;;;;3.53;2.30;;;;;;;8.08;100.00;95990.34;5079835;28;20461;-75
2022/05/29 06:21:20;;;;;;;5.97;3.10;;;;;;;8.38;100.00;96014.06;5085499;28;20457;-75
2022/05/29 06:23:47;;;;;;;3.73;2.67;;;;;;;8.91;100.00;96016.03;5070299;28;20520;-75
2022/05/29 06:26:14;;;;;;;4.30;3.40;;;;;;;9.24;100.00;96023.97;5083689;28;20941;-76
2022/05/29 06:28:41;;;;;;;2.90;1.97;;;;;;;9.58;100.00;95987.78;5081845;28;20451;-76
2022/05/29 06:31:11;;;;;;;3.03;2.30;;;;;;;10.14;100.00;96014.44;5078087;28;20929;-75
2022/05/29 06:33:38;;;;;;;3.90;2.63;;;;;;;9.55;100.00;96010.31;5062087;28;20464;-75
2022/05/29 06:36:16;;;;;;;4.77;2.30;;;;;;;9.66;100.00;96008.81;5083690;28;20863;-75
2022/05/29 06:38:47;;;;;;;6.13;1.70;;;;;;;10.30;100.00;96002.94;5083857;28;20456;-75
2022/05/29 06:41:16;;;;;;;11.60;2.10;;;;;;;10.44;100.00;96020.31;5057039;28;20435;-75
2022/05/29 06:43:44;;;;;;;4.30;1.77;;;;;;;10.20;100.00;96013.13;5054005;28;20502;-75
2022/05/29 06:46:12;;;;;;;4.60;2.20;;;;;;;10.71;100.00;96010.91;5062414;28;20455;-75
2022/05/29 06:48:40;;;;;;;1.90;1.40;;;;;;;10.44;100.00;96015.03;5076758;28;20457;-75
2022/05/29 06:51:10;;;;;;;6.60;1.70;;;;;;;10.93;100.00;96008.50;5082646;28;21245;-75
2022/05/29 06:53:38;;;;;;;4.20;2.10;;;;;;;10.71;100.00;95973.88;5067235;28;20484;-75
2022/05/29 06:56:06;;;;;;;3.23;2.27;;;;;;;11.41;100.00;96011.28;5058798;28;20452;-75
2022/05/29 06:58:33;;;;;;;4.10;2.63;;;;;;;11.83;100.00;95987.78;5067464;28;20476;-75
2022/05/29 07:06:59;;;;;;;5.53;2.17;;;;;;;11.72;100.00;95984.09;5088737;28;20417;-75
2022/05/29 07:09:39;;;;;;;3.20;1.60;;;;;;;12.27;100.00;96014.16;5097852;28;20490;-75
2022/05/29 07:12:08;;;;;;;7.57;2.70;;;;;;;11.93;97.29;96013.00;5066183;28;20516;-75
2022/05/29 07:14:42;;;;;;;8.40;2.10;;;;;;;12.26;99.67;96012.63;5077052;28;20433;-76
2022/05/29 07:17:11;;;;;;;5.53;1.70;;;;;;;12.06;96.13;95994.03;5082556;28;20459;-75
2022/05/29 07:19:38;;;;;;;2.50;1.50;;;;;;;12.68;92.87;96016.22;5084834;28;20430;-75
2022/05/29 07:22:04;;;;;;;9.10;2.80;;;;;;;12.12;88.26;95981.28;5079357;28;21004;-75
2022/05/29 07:24:34;;;;;;;5.30;1.97;;;;;;;12.69;89.10;96017.00;5076306;28;20441;-75
2022/05/29 07:27:01;;;;;;;3.43;1.87;;;;;;;12.53;85.38;96026.88;5079891;28;20516;-75
2022/05/29 07:29:27;;;;;;;6.60;2.10;;;;;;;12.72;85.82;96005.69;5086814;28;20842;-75
2022/05/29 07:31:54;;;;;;;5.00;2.00;;;;;;;13.16;81.51;96008.09;5079390;28;21062;-75
2022/05/29 07:34:21;;;;;;;4.60;1.93;;;;;;;13.07;80.95;96015.47;5083170;28;20981;-75
2022/05/29 07:36:50;;;;;;;2.77;1.47;;;;;;;13.83;82.75;96011.22;5086650;28;20515;-75
2022/05/29 07:39:17;;;;;;;3.20;1.60;;;;;;;13.11;79.03;96024.31;5086605;28;20440;-75
2022/05/29 07:44:28;;;;;;;4.63;2.03;;;;;;;13.80;83.46;95993.31;5069534;28;20464;-75
2022/05/29 07:46:56;;;;;;;7.47;2.20;;;;;;;14.39;79.41;96015.88;5083527;28;20443;-75
2022/05/29 07:49:23;;;;;;;4.97;1.90;;;;;;;13.99;76.45;95993.25;5077720;28;20459;-75
2022/05/29 07:51:50;;;;;;;9.03;1.97;;;;;;;13.58;73.42;95974.34;5076081;28;20463;-75
2022/05/29 07:54:17;;;;;;;5.17;1.90;;;;;;;13.46;73.97;95960.47;5084198;28;20437;-75
2022/05/29 07:56:43;;;;;;;3.93;1.90;;;;;;;14.18;73.00;96003.81;5087906;28;20473;-75
2022/05/29 07:59:10;;;;;;;3.93;1.83;;;;;;;13.98;72.29;95954.50;5073234;28;20826;-75
2022/05/29 08:01:37;;;;;;;10.27;2.20;;;;;;;14.47;67.32;96017.56;5074184;28;20498;-75
2022/05/29 08:04:04;;;;;;;4.40;1.90;;;;;;;13.00;68.53;95963.81;5056444;28;20504;-75
2022/05/29 08:06:31;;;;;;;2.87;1.40;;;;;;;13.21;69.24;95976.72;5086229;28;20498;-75
2022/05/29 08:08:57;;;;;;;3.23;1.80;;;;;;;13.39;69.25;96002.84;5082468;28;20466;-75
2022/05/29 08:11:24;;;;;;;1.83;1.50;;;;;;;13.40;67.85;96015.03;5062554;28;20979;-75
2022/05/29 08:13:51;;;;;;;6.80;2.60;;;;;;;14.04;72.89;95962.97;5062969;28;20433;-75
2022/05/29 08:16:18;;;;;;;6.23;1.70;;;;;;;14.22;72.83;96011.84;5075822;28;20534;-75
2022/05/29 08:18:46;;;;;;;3.27;1.70;;;;;;;14.07;67.54;95996.78;5093038;28;20477;-77
2022/05/29 08:21:15;;;;;;;3.40;2.20;;;;;;;12.51;69.44;95981.38;5068493;28;20447;-77
2022/05/29 08:30:37;;;;;;;3.87;1.77;;;;;;;12.63;71.00;95987.31;5058372;28;20467;-77
2022/05/29 08:32:19;;;;;;;3.03;2.10;;;;;;;12.70;71.95;95984.84;5072191;28;20539;-77
2022/05/29 08:34:46;;;;;;;4.23;2.20;;;;;;;13.30;70.04;95963.25;5072402;28;20497;-76
2022/05/29 08:37:12;;;;;;;3.53;1.90;;;;;;;13.72;67.59;95963.19;5086207;28;20447;-76
2022/05/29 08:39:39;;;;;;;2.90;1.80;;;;;;;14.19;65.31;95954.06;5072614;28;21287;-76
2022/05/29 08:42:06;;;;;;;4.60;1.63;;;;;;;14.40;64.08;95969.53;5075014;28;20468;-77
2022/05/29 08:44:47;;;;;;;4.63;1.57;;;;;;;14.02;57.04;95981.13;5094026;28;20526;-77
2022/05/29 08:47:15;;;;;;;3.97;2.20;;;;;;;13.73;55.71;95958.66;5076095;28;20431;-77
2022/05/29 08:49:48;;;;;;;1.50;1.30;;;;;;;13.74;57.91;95995.50;5084489;28;20451;-77
2022/05/29 08:52:43;;;;;;;2.40;1.30;;;;;;;13.77;60.07;95989.50;5085613;28;21050;-76
2022/05/29 08:55:10;;;;;;;3.53;2.20;;;;;;;14.24;61.16;95983.00;5085672;28;20810;-77
2022/05/29 08:58:08;;;;;;;6.23;2.00;;;;;;;13.06;62.69;95984.75;5071838;28;20964;-77
2022/05/29 09:00:43;;;;;;;2.93;1.57;;;;;;;13.26;64.07;95957.09;5049478;28;20435;-78
2022/05/29 09:03:35;;;;;;;2.33;1.30;;;;;;;14.30;62.34;95986.91;5091660;28;20549;-77
2022/05/29 09:06:13;;;;;;;1.90;1.50;;;;;;;14.26;60.33;95990.63;5082650;28;20504;-78
2022/05/29 09:08:53;;;;;;;1.90;1.47;;;;;;;14.26;61.26;95942.75;5086642;28;20451;-79
2022/05/29 09:11:31;;;;;;;4.60;1.60;;;;;;;14.73;56.85;95980.28;5090874;28;20510;-78
2022/05/29 09:14:12;;;;;;;4.33;1.67;;;;;;;14.45;58.24;95961.28;5072907;28;20905;-78
2022/05/29 09:16:46;;;;;;;4.13;1.40;;;;;;;14.30;60.28;95883.19;5072939;28;20519;-78
2022/05/29 09:19:42;;;;;;;4.57;1.87;;;;;;;15.04;60.88;95949.84;5089205;28;20400;-79
2022/05/29 09:22:17;;;;;;;4.47;1.83;;;;;;;15.30;58.53;95964.19;5082420;28;20543;-79
2022/05/29 09:24:48;;;;;;;4.60;1.60;;;;;;;14.91;53.38;95971.75;5085426;28;20455;-79
2022/05/29 09:27:16;;;;;;;4.30;1.43;;;;;;;15.03;53.03;95964.28;5085870;28;20439;-78
2022/05/29 09:29:43;;;;;;;2.33;1.60;;;;;;;15.70;50.91;95947.47;5075331;28;20515;-76
2022/05/29 09:32:33;;;;;;;2.80;1.50;;;;;;;15.90;51.62;95924.03;5074934;28;20994;-76
2022/05/29 09:35:17;;;;;;;9.30;2.37;;;;;;;17.11;50.84;95952.13;5054854;28;20864;-76
2022/05/29 09:37:52;;;;;;;3.10;1.53;;;;;;;17.25;51.30;95929.25;5085596;28;20489;-76
2022/05/29 09:40:26;;;;;;;1.30;1.03;;;;;;;16.83;48.17;95896.72;5071947;28;20486;-78
2022/05/29 09:42:54;;;;;;;3.60;1.77;;;;;;;16.46;49.72;95920.16;5072674;28;20513;-79
2022/05/29 09:45:28;;;;;;;4.10;1.73;;;;;;;16.62;45.42;95946.53;5074027;28;21087;-78
2022/05/29 09:50:56;;;;;;;3.17;1.70;;;;;;;15.52;49.51;95898.56;5060571;28;20494;-78
2022/05/29 09:53:32;;;;;;;3.57;1.33;;;;;;;14.35;51.58;95933.38;5072725;28;20444;-79
2022/05/29 09:56:02;;;;;;;5.63;1.63;;;;;;;14.17;54.75;95900.47;5092682;28;20396;-79
2022/05/29 09:58:50;;;;;;;5.53;1.83;;;;;;;14.11;54.57;95939.13;5071009;28;20444;-79
2022/05/29 10:01:28;;;;;;;1.70;1.27;;;;;;;13.71;54.80;95931.69;5072730;28;20924;-78
2022/05/29 10:03:57;;;;;;;3.50;1.53;;;;;;;13.38;54.71;95845.41;5070865;28;20839;-78
2022/05/29 10:06:34;;;;;;;2.40;2.07;;;;;;;14.31;54.38;95918.53;5070983;28;20982;-78
2022/05/29 10:09:09;;;;;;;3.90;1.53;;;;;;;13.89;54.21;95883.00;5071045;28;20491;-78
2022/05/29 10:11:35;;;;;;;4.73;2.00;;;;;;;13.55;55.02;95860.84;5070687;28;20807;-78
2022/05/29 10:14:54;;;;;;;4.80;1.43;;;;;;;13.86;52.41;95920.91;5070820;28;21327;-78
2022/05/29 10:17:27;;;;;;;2.93;1.23;;;;;;;14.37;52.87;95919.72;5033965;28;20449;-78
2022/05/29 10:19:54;;;;;;;2.23;1.40;;;;;;;15.03;53.17;95915.59;5071570;28;20424;-78
2022/05/29 10:22:31;;;;;;;3.17;2.00;;;;;;;15.39;49.98;95916.72;5072670;28;20815;-76
2022/05/29 10:24:59;;;;;;;3.57;1.80;;;;;;;15.06;46.63;95888.22;5051309;28;20872;-76
2022/05/29 10:27:30;;;;;;;3.10;1.33;;;;;;;15.82;47.51;95903.75;5054474;28;20479;-76
2022/05/29 10:30:01;;;;;;;3.60;1.30;;;;;;;15.40;46.54;95901.50;5091786;28;20560;-76
2022/05/29 10:32:30;;;;;;;1.67;1.57;;;;;;;16.00;44.56;95925.97;5087901;28;20467;-76
2022/05/29 10:35:27;;;;;;;7.87;1.63;;;;;;;16.18;45.49;95929.53;5080765;28;20503;-76
2022/05/29 10:37:56;;;;;;;2.30;1.47;;;;;;;14.86;43.91;95918.84;5082381;28;20979;-76
2022/05/29 10:40:31;;;;;;;4.07;1.40;;;;;;;15.12;43.38;95926.72;5083691;28;20440;-75
2022/05/29 10:43:01;;;;;;;3.67;1.60;;;;;;;14.59;44.28;95880.88;5079720;28;20463;-76
2022/05/29 10:45:41;;;;;;;3.03;1.60;;;;;;;14.53;46.15;95899.06;5073172;28;20484;-77
2022/05/29 10:48:53;;;;;;;3.17;1.50;;;;;;;14.52;46.38;95913.47;5070975;28;20494;-76
2022/05/29 10:51:23;;;;;;;3.00;1.40;;;;;;;14.08;47.71;95915.91;5081611;28;20443;-77
2022/05/29 10:54:14;;;;;;;5.90;2.20;;;;;;;14.22;45.76;95918.00;5059990;28;20455;-77
2022/05/29 10:57:20;;;;;;;8.37;1.60;;;;;;;13.99;53.40;95921.47;5076876;28;20524;-76
2022/05/29 11:00:37;;;;;;;9.87;2.07;;;;;;;13.59;60.36;95916.69;5054127;28;20440;-76
2022/05/29 11:03:22;;;;;;;2.17;1.50;;;;;;;12.78;65.48;95914.09;5077829;28;21007;-76
2022/05/29 11:06:09;;;;;;;2.70;1.83;;;;;;;12.67;68.09;95891.91;5081369;28;20900;-76
2022/05/29 11:09:05;;;;;;;3.83;1.50;;;;;;;12.91;68.01;95923.44;5083099;28;20443;-76
2022/05/29 11:12:21;;;;;;;2.43;2.10;;;;;;;12.88;62.59;95918.06;5088244;28;20947;-76
2022/05/29 11:15:13;;;;;;;4.03;1.50;;;;;;;12.18;59.42;95920.84;5078053;28;20482;-77
2022/05/29 11:18:20;;;;;;;3.20;1.87;;;;;;;11.47;67.79;95875.69;5094161;28;20982;-77
2022/05/29 11:21:05;;;;;;;2.80;1.43;;;;;;;11.80;71.38;95933.63;5092470;28;20407;-76
2022/05/29 11:23:40;;;;;;;4.70;1.93;;;;;;;11.18;74.40;95900.69;5068239;28;20482;-78
2022/05/29 11:26:16;;;;;;;4.30;1.70;;;;;;;11.21;83.05;95928.34;5075959;28;20428;-77
2022/05/29 11:29:19;;;;;;;8.00;3.50;;;;;;;11.04;94.39;95933.97;5088241;28;21018;-79
2022/05/29 11:33:18;;;;;;;6.60;2.03;;;;;;;11.04;100.00;95924.16;5076426;28;20464;-80
2022/05/29 11:36:13;;;;;;;5.60;1.90;;;;;;;11.48;100.00;95927.53;5094463;28;20836;-80
2022/05/29 11:38:56;;;;;;;4.77;1.90;;;;;;;11.72;100.00;95923.94;5075203;28;20558;-78
2022/05/29 11:41:30;;;;;;;3.80;2.20;;;;;;;11.24;100.00;95927.69;5061775;28;20511;-78
2022/05/29 11:44:07;;;;;;;2.20;1.77;;;;;;;11.09;100.00;95901.97;5073288;28;20424;-78
2022/05/29 11:52:32;;;;;;;5.00;1.70;;;;;;;11.27;100.00;95910.38;5077307;28;20456;-78
2022/05/29 11:55:21;;;;;;;4.70;2.83;;;;;;;11.34;100.00;95918.47;5069156;28;20477;-79
2022/05/29 11:58:02;;;;;;;1.93;1.77;;;;;;;11.01;100.00;95895.72;5102168;28;20455;-80
2022/05/29 12:00:58;;;;;;;5.30;1.87;;;;;;;11.46;100.00;95927.09;5076318;28;20427;-81
2022/05/29 12:03:27;;;;;;;2.13;1.93;;;;;;;11.48;100.00;95927.53;5075376;28;20506;-81
2022/05/29 12:06:12;;;;;;;3.07;1.80;;;;;;;11.41;100.00;95922.06;5060604;28;20432;-79
2022/05/29 12:09:15;;;;;;;3.67;1.57;;;;;;;11.08;100.00;95871.31;5067993;28;20439;-78
2022/05/29 12:11:50;;;;;;;3.13;2.27;;;;;;;11.16;100.00;95876.47;5066786;28;20455;-78
2022/05/29 12:14:22;;;;;;;2.90;1.60;;;;;;;11.65;100.00;95915.84;5080031;28;20456;-78
2022/05/29 12:16:58;;;;;;;2.70;1.80;;;;;;;11.98;100.00;95904.09;5068277;28;20959;-78
2022/05/29 12:19:39;;;;;;;1.73;1.37;;;;;;;12.05;100.00;95865.31;5079330;28;20845;-78
2022/05/29 12:22:08;;;;;;;2.00;1.50;;;;;;;12.52;96.29;95896.16;5062140;28;20843;-78
2022/05/29 12:24:41;;;;;;;1.60;1.43;;;;;;;12.80;94.93;95905.78;5066062;28;20945;-78
2022/05/29 12:27:15;;;;;;;2.87;1.30;;;;;;;13.14;91.52;95901.50;5066700;28;20834;-79
2022/05/29 12:29:45;;;;;;;2.30;2.10;;;;;;;12.99;88.23;95913.75;5055736;28;20502;-78
2022/05/29 12:32:22;;;;;;;2.83;1.70;;;;;;;12.93;85.77;95880.63;5087609;28;20821;-78
2022/05/29 12:34:55;;;;;;;2.30;1.43;;;;;;;13.11;81.33;95907.50;5085577;28;20494;-78
2022/05/29 12:37:43;;;;;;;2.90;1.47;;;;;;;12.99;79.40;95921.69;5085958;28;21123;-78